sensor_id;sensor_type;location;lat;lon;timestamp;P1;durP1;ratioP1;P2;durP2;ratioP2
52620;SDS011;38515;53.160;6.990;2024-01-10T00:01:31;383.10;;;367.25;;
52620;SDS011;38515;53.160;6.990;2024-01-10T00:03:57;376.55;;;360.50;;
52620;SDS011;38515;53.160;6.990;2024-01-10T00:06:23;378.83;;;363.48;;
52620;SDS011;38515;53.160;6.990;2024-01-10T00:08:49;371.38;;;356.00;;
52620;SDS011;38515;53.160;6.990;2024-01-10T00:11:15;376.65;;;361.42;;
52620;SDS011;38515;53.160;6.990;2024-01-10T00:13:40;398.25;;;380.85;;
52620;SDS011;38515;53.160;6.990;2024-01-10T00:16:06;430.05;;;411.00;;
52620;SDS011;38515;53.160;6.990;2024-01-10T00:18:33;484.42;;;461.75;;
52620;SDS011;38515;53.160;6.990;2024-01-10T00:20:58;526.47;;;500.63;;
52620;SDS011;38515;53.160;6.990;2024-01-10T00:23:24;544.97;;;517.75;;
52620;SDS011;38515;53.160;6.990;2024-01-10T00:25:50;528.67;;;502.48;;
52620;SDS011;38515;53.160;6.990;2024-01-10T00:28:16;526.25;;;500.00;;
52620;SDS011;38515;53.160;6.990;2024-01-10T00:30:43;532.08;;;505.02;;
52620;SDS011;38515;53.160;6.990;2024-01-10T00:33:09;522.03;;;495.55;;
52620;SDS011;38515;53.160;6.990;2024-01-10T00:35:35;491.77;;;467.25;;
52620;SDS011;38515;53.160;6.990;2024-01-10T00:38:00;464.98;;;442.10;;
52620;SDS011;38515;53.160;6.990;2024-01-10T00:40:26;412.85;;;393.90;;
52620;SDS011;38515;53.160;6.990;2024-01-10T00:42:52;394.60;;;376.55;;
52620;SDS011;38515;53.160;6.990;2024-01-10T00:45:17;413.30;;;394.20;;
52620;SDS011;38515;53.160;6.990;2024-01-10T00:47:43;447.48;;;425.30;;
52620;SDS011;38515;53.160;6.990;2024-01-10T00:50:09;449.63;;;428.67;;
52620;SDS011;38515;53.160;6.990;2024-01-10T00:52:35;463.55;;;441.80;;
52620;SDS011;38515;53.160;6.990;2024-01-10T00:55:01;461.30;;;440.02;;
52620;SDS011;38515;53.160;6.990;2024-01-10T00:57:27;443.17;;;423.65;;
52620;SDS011;38515;53.160;6.990;2024-01-10T00:59:53;441.48;;;421.42;;
52620;SDS011;38515;53.160;6.990;2024-01-10T01:02:18;347.67;;;332.92;;
52620;SDS011;38515;53.160;6.990;2024-01-10T01:04:44;327.33;;;313.85;;
52620;SDS011;38515;53.160;6.990;2024-01-10T01:07:10;332.48;;;318.30;;
52620;SDS011;38515;53.160;6.990;2024-01-10T01:09:35;336.02;;;322.05;;
52620;SDS011;38515;53.160;6.990;2024-01-10T01:12:01;379.83;;;362.88;;
52620;SDS011;38515;53.160;6.990;2024-01-10T01:14:27;361.73;;;346.67;;
52620;SDS011;38515;53.160;6.990;2024-01-10T01:16:52;364.25;;;348.35;;
52620;SDS011;38515;53.160;6.990;2024-01-10T01:19:18;392.33;;;375.45;;
52620;SDS011;38515;53.160;6.990;2024-01-10T01:21:43;425.33;;;407.27;;
52620;SDS011;38515;53.160;6.990;2024-01-10T01:24:09;384.33;;;368.50;;
52620;SDS011;38515;53.160;6.990;2024-01-10T01:26:36;401.55;;;384.48;;
52620;SDS011;38515;53.160;6.990;2024-01-10T01:29:02;405.02;;;387.33;;
52620;SDS011;38515;53.160;6.990;2024-01-10T01:31:27;421.50;;;402.83;;
52620;SDS011;38515;53.160;6.990;2024-01-10T01:33:53;423.35;;;403.77;;
52620;SDS011;38515;53.160;6.990;2024-01-10T01:36:18;420.55;;;401.30;;
52620;SDS011;38515;53.160;6.990;2024-01-10T01:38:44;424.48;;;405.10;;
52620;SDS011;38515;53.160;6.990;2024-01-10T01:41:10;416.83;;;397.90;;
52620;SDS011;38515;53.160;6.990;2024-01-10T01:43:36;408.10;;;389.60;;
52620;SDS011;38515;53.160;6.990;2024-01-10T01:46:01;377.55;;;361.10;;
52620;SDS011;38515;53.160;6.990;2024-01-10T01:48:28;370.60;;;355.23;;
52620;SDS011;38515;53.160;6.990;2024-01-10T01:50:56;386.60;;;370.17;;
52620;SDS011;38515;53.160;6.990;2024-01-10T01:53:24;366.80;;;351.50;;
52620;SDS011;38515;53.160;6.990;2024-01-10T01:55:51;371.42;;;356.05;;
52620;SDS011;38515;53.160;6.990;2024-01-10T01:58:22;397.95;;;380.38;;
52620;SDS011;38515;53.160;6.990;2024-01-10T02:00:48;394.27;;;377.58;;
52620;SDS011;38515;53.160;6.990;2024-01-10T02:03:14;343.27;;;328.85;;
52620;SDS011;38515;53.160;6.990;2024-01-10T02:05:40;370.55;;;355.52;;
52620;SDS011;38515;53.160;6.990;2024-01-10T02:08:06;375.42;;;359.75;;
52620;SDS011;38515;53.160;6.990;2024-01-10T02:10:33;375.17;;;359.98;;
52620;SDS011;38515;53.160;6.990;2024-01-10T02:12:59;375.63;;;360.70;;
52620;SDS011;38515;53.160;6.990;2024-01-10T02:15:26;381.88;;;366.20;;
52620;SDS011;38515;53.160;6.990;2024-01-10T02:17:51;401.55;;;383.98;;
52620;SDS011;38515;53.160;6.990;2024-01-10T02:20:17;427.55;;;408.88;;
52620;SDS011;38515;53.160;6.990;2024-01-10T02:22:43;450.65;;;430.15;;
52620;SDS011;38515;53.160;6.990;2024-01-10T02:25:13;461.65;;;440.02;;
52620;SDS011;38515;53.160;6.990;2024-01-10T02:27:39;473.60;;;451.55;;
52620;SDS011;38515;53.160;6.990;2024-01-10T02:30:06;490.42;;;466.92;;
52620;SDS011;38515;53.160;6.990;2024-01-10T02:32:32;497.95;;;474.17;;
52620;SDS011;38515;53.160;6.990;2024-01-10T02:34:58;452.73;;;432.23;;
52620;SDS011;38515;53.160;6.990;2024-01-10T02:37:24;474.90;;;452.63;;
52620;SDS011;38515;53.160;6.990;2024-01-10T02:39:50;458.08;;;438.15;;
52620;SDS011;38515;53.160;6.990;2024-01-10T02:42:16;492.85;;;471.05;;
52620;SDS011;38515;53.160;6.990;2024-01-10T02:44:42;471.88;;;450.67;;
52620;SDS011;38515;53.160;6.990;2024-01-10T02:47:08;462.23;;;442.17;;
52620;SDS011;38515;53.160;6.990;2024-01-10T02:49:35;464.73;;;444.13;;
52620;SDS011;38515;53.160;6.990;2024-01-10T02:52:01;468.52;;;447.75;;
52620;SDS011;38515;53.160;6.990;2024-01-10T02:54:26;514.60;;;489.92;;
52620;SDS011;38515;53.160;6.990;2024-01-10T02:56:53;507.65;;;483.80;;
52620;SDS011;38515;53.160;6.990;2024-01-10T02:59:18;499.65;;;474.65;;
52620;SDS011;38515;53.160;6.990;2024-01-10T03:01:44;510.92;;;487.25;;
52620;SDS011;38515;53.160;6.990;2024-01-10T03:04:10;512.22;;;488.27;;
52620;SDS011;38515;53.160;6.990;2024-01-10T03:06:35;483.20;;;460.52;;
52620;SDS011;38515;53.160;6.990;2024-01-10T03:09:01;523.42;;;499.15;;
52620;SDS011;38515;53.160;6.990;2024-01-10T03:11:27;524.53;;;498.95;;
52620;SDS011;38515;53.160;6.990;2024-01-10T03:14:03;541.15;;;514.63;;
52620;SDS011;38515;53.160;6.990;2024-01-10T03:16:32;509.50;;;485.63;;
52620;SDS011;38515;53.160;6.990;2024-01-10T03:18:57;538.33;;;511.95;;
52620;SDS011;38515;53.160;6.990;2024-01-10T03:21:23;546.20;;;520.33;;
52620;SDS011;38515;53.160;6.990;2024-01-10T03:23:52;505.20;;;481.52;;
52620;SDS011;38515;53.160;6.990;2024-01-10T03:26:22;537.67;;;512.13;;
52620;SDS011;38515;53.160;6.990;2024-01-10T03:28:48;543.65;;;517.65;;
52620;SDS011;38515;53.160;6.990;2024-01-10T03:31:14;535.97;;;510.63;;
52620;SDS011;38515;53.160;6.990;2024-01-10T03:33:40;525.58;;;500.60;;
52620;SDS011;38515;53.160;6.990;2024-01-10T03:36:06;518.17;;;494.00;;
52620;SDS011;38515;53.160;6.990;2024-01-10T03:38:34;499.55;;;476.00;;
52620;SDS011;38515;53.160;6.990;2024-01-10T03:41:00;502.88;;;479.63;;
52620;SDS011;38515;53.160;6.990;2024-01-10T03:43:25;515.92;;;491.10;;
52620;SDS011;38515;53.160;6.990;2024-01-10T03:45:51;530.25;;;505.00;;
52620;SDS011;38515;53.160;6.990;2024-01-10T03:48:17;529.15;;;503.08;;
52620;SDS011;38515;53.160;6.990;2024-01-10T03:50:42;529.30;;;504.25;;
52620;SDS011;38515;53.160;6.990;2024-01-10T03:53:08;527.47;;;501.77;;
52620;SDS011;38515;53.160;6.990;2024-01-10T03:55:34;526.70;;;501.27;;
52620;SDS011;38515;53.160;6.990;2024-01-10T03:57:59;536.00;;;509.83;;
52620;SDS011;38515;53.160;6.990;2024-01-10T04:00:25;541.95;;;516.25;;
52620;SDS011;38515;53.160;6.990;2024-01-10T04:02:51;549.13;;;522.65;;
52620;SDS011;38515;53.160;6.990;2024-01-10T04:05:17;531.40;;;506.00;;
52620;SDS011;38515;53.160;6.990;2024-01-10T04:07:44;528.03;;;501.95;;
52620;SDS011;38515;53.160;6.990;2024-01-10T04:10:10;523.03;;;497.67;;
52620;SDS011;38515;53.160;6.990;2024-01-10T04:12:39;530.53;;;504.73;;
52620;SDS011;38515;53.160;6.990;2024-01-10T04:15:05;519.35;;;495.23;;
52620;SDS011;38515;53.160;6.990;2024-01-10T04:17:32;519.97;;;495.05;;
52620;SDS011;38515;53.160;6.990;2024-01-10T04:19:58;513.95;;;490.80;;
52620;SDS011;38515;53.160;6.990;2024-01-10T04:22:23;530.75;;;506.20;;
52620;SDS011;38515;53.160;6.990;2024-01-10T04:24:50;533.13;;;507.75;;
52620;SDS011;38515;53.160;6.990;2024-01-10T04:27:16;525.05;;;499.92;;
52620;SDS011;38515;53.160;6.990;2024-01-10T04:29:43;518.42;;;493.55;;
52620;SDS011;38515;53.160;6.990;2024-01-10T04:32:09;516.30;;;492.05;;
52620;SDS011;38515;53.160;6.990;2024-01-10T04:34:35;500.05;;;477.05;;
52620;SDS011;38515;53.160;6.990;2024-01-10T04:37:01;497.38;;;473.83;;
52620;SDS011;38515;53.160;6.990;2024-01-10T04:39:26;503.05;;;479.65;;
52620;SDS011;38515;53.160;6.990;2024-01-10T04:41:52;506.50;;;482.60;;
52620;SDS011;38515;53.160;6.990;2024-01-10T04:44:18;494.05;;;470.35;;
52620;SDS011;38515;53.160;6.990;2024-01-10T04:46:44;501.08;;;477.63;;
52620;SDS011;38515;53.160;6.990;2024-01-10T04:49:09;502.65;;;479.23;;
52620;SDS011;38515;53.160;6.990;2024-01-10T04:51:35;511.35;;;487.50;;
52620;SDS011;38515;53.160;6.990;2024-01-10T04:54:01;516.60;;;492.23;;
52620;SDS011;38515;53.160;6.990;2024-01-10T04:56:26;512.45;;;488.50;;
52620;SDS011;38515;53.160;6.990;2024-01-10T04:58:52;497.77;;;474.58;;
52620;SDS011;38515;53.160;6.990;2024-01-10T05:01:18;502.80;;;479.85;;
52620;SDS011;38515;53.160;6.990;2024-01-10T05:03:44;494.73;;;470.38;;
52620;SDS011;38515;53.160;6.990;2024-01-10T05:06:10;489.33;;;467.05;;
52620;SDS011;38515;53.160;6.990;2024-01-10T05:08:36;492.75;;;469.83;;
52620;SDS011;38515;53.160;6.990;2024-01-10T05:11:02;502.60;;;479.77;;
52620;SDS011;38515;53.160;6.990;2024-01-10T05:13:28;498.20;;;475.38;;
52620;SDS011;38515;53.160;6.990;2024-01-10T05:15:54;485.08;;;462.60;;
52620;SDS011;38515;53.160;6.990;2024-01-10T05:18:20;484.45;;;462.33;;
52620;SDS011;38515;53.160;6.990;2024-01-10T05:20:46;466.95;;;445.90;;
52620;SDS011;38515;53.160;6.990;2024-01-10T05:23:12;495.30;;;473.13;;
52620;SDS011;38515;53.160;6.990;2024-01-10T05:25:38;498.80;;;475.35;;
52620;SDS011;38515;53.160;6.990;2024-01-10T05:28:04;511.77;;;488.13;;
52620;SDS011;38515;53.160;6.990;2024-01-10T05:30:30;509.63;;;486.05;;
52620;SDS011;38515;53.160;6.990;2024-01-10T05:32:57;514.15;;;489.92;;
52620;SDS011;38515;53.160;6.990;2024-01-10T05:35:24;520.67;;;496.60;;
52620;SDS011;38515;53.160;6.990;2024-01-10T05:37:53;515.45;;;492.13;;
52620;SDS011;38515;53.160;6.990;2024-01-10T05:40:19;533.72;;;508.35;;
52620;SDS011;38515;53.160;6.990;2024-01-10T05:42:45;529.35;;;504.58;;
52620;SDS011;38515;53.160;6.990;2024-01-10T05:45:11;529.10;;;504.35;;
52620;SDS011;38515;53.160;6.990;2024-01-10T05:47:37;541.05;;;516.25;;
52620;SDS011;38515;53.160;6.990;2024-01-10T05:50:03;518.35;;;494.17;;
52620;SDS011;38515;53.160;6.990;2024-01-10T05:52:31;503.90;;;480.73;;
52620;SDS011;38515;53.160;6.990;2024-01-10T05:54:58;499.15;;;476.88;;
52620;SDS011;38515;53.160;6.990;2024-01-10T05:57:26;385.80;;;369.35;;
52620;SDS011;38515;53.160;6.990;2024-01-10T05:59:52;378.95;;;362.95;;
52620;SDS011;38515;53.160;6.990;2024-01-10T06:02:21;364.40;;;349.10;;
52620;SDS011;38515;53.160;6.990;2024-01-10T06:04:48;371.48;;;355.48;;
52620;SDS011;38515;53.160;6.990;2024-01-10T06:07:13;371.35;;;355.30;;
52620;SDS011;38515;53.160;6.990;2024-01-10T06:09:39;374.95;;;358.33;;
52620;SDS011;38515;53.160;6.990;2024-01-10T06:12:05;429.80;;;410.33;;
52620;SDS011;38515;53.160;6.990;2024-01-10T06:14:31;416.33;;;397.25;;
52620;SDS011;38515;53.160;6.990;2024-01-10T06:16:57;452.50;;;431.88;;
52620;SDS011;38515;53.160;6.990;2024-01-10T06:19:25;437.17;;;417.38;;
52620;SDS011;38515;53.160;6.990;2024-01-10T06:21:50;469.35;;;447.98;;
52620;SDS011;38515;53.160;6.990;2024-01-10T06:24:17;487.33;;;465.48;;
52620;SDS011;38515;53.160;6.990;2024-01-10T06:26:43;530.15;;;505.67;;
52620;SDS011;38515;53.160;6.990;2024-01-10T06:29:09;574.20;;;546.63;;
52620;SDS011;38515;53.160;6.990;2024-01-10T06:31:34;575.75;;;548.05;;
52620;SDS011;38515;53.160;6.990;2024-01-10T06:34:00;587.30;;;559.13;;
52620;SDS011;38515;53.160;6.990;2024-01-10T06:36:26;570.08;;;542.72;;
52620;SDS011;38515;53.160;6.990;2024-01-10T06:38:51;546.90;;;520.70;;
52620;SDS011;38515;53.160;6.990;2024-01-10T06:41:17;542.85;;;517.30;;
52620;SDS011;38515;53.160;6.990;2024-01-10T06:43:49;557.53;;;530.83;;
52620;SDS011;38515;53.160;6.990;2024-01-10T06:46:18;558.47;;;531.17;;
52620;SDS011;38515;53.160;6.990;2024-01-10T06:48:45;566.22;;;539.40;;
52620;SDS011;38515;53.160;6.990;2024-01-10T06:51:14;555.78;;;529.67;;
52620;SDS011;38515;53.160;6.990;2024-01-10T06:53:40;564.58;;;537.55;;
52620;SDS011;38515;53.160;6.990;2024-01-10T06:56:06;566.80;;;538.83;;
52620;SDS011;38515;53.160;6.990;2024-01-10T06:58:32;546.90;;;521.65;;
52620;SDS011;38515;53.160;6.990;2024-01-10T07:00:58;548.22;;;522.45;;
52620;SDS011;38515;53.160;6.990;2024-01-10T07:03:30;528.63;;;504.60;;
52620;SDS011;38515;53.160;6.990;2024-01-10T07:05:56;555.25;;;529.10;;
52620;SDS011;38515;53.160;6.990;2024-01-10T07:08:22;560.22;;;533.58;;
52620;SDS011;38515;53.160;6.990;2024-01-10T07:10:48;528.50;;;503.38;;
52620;SDS011;38515;53.160;6.990;2024-01-10T07:13:14;548.17;;;521.70;;
52620;SDS011;38515;53.160;6.990;2024-01-10T07:15:40;539.95;;;514.85;;
52620;SDS011;38515;53.160;6.990;2024-01-10T07:18:06;532.70;;;507.35;;
52620;SDS011;38515;53.160;6.990;2024-01-10T07:20:31;547.10;;;521.47;;
52620;SDS011;38515;53.160;6.990;2024-01-10T07:22:58;542.88;;;517.30;;
52620;SDS011;38515;53.160;6.990;2024-01-10T07:25:24;532.60;;;505.77;;
52620;SDS011;38515;53.160;6.990;2024-01-10T07:27:53;507.33;;;483.27;;
52620;SDS011;38515;53.160;6.990;2024-01-10T07:30:19;535.53;;;510.05;;
52620;SDS011;38515;53.160;6.990;2024-01-10T07:32:45;531.88;;;507.00;;
52620;SDS011;38515;53.160;6.990;2024-01-10T07:35:11;509.58;;;486.23;;
52620;SDS011;38515;53.160;6.990;2024-01-10T07:37:39;504.10;;;480.83;;
52620;SDS011;38515;53.160;6.990;2024-01-10T07:40:06;382.20;;;366.38;;
52620;SDS011;38515;53.160;6.990;2024-01-10T07:42:38;409.65;;;392.42;;
52620;SDS011;38515;53.160;6.990;2024-01-10T07:45:07;490.88;;;467.60;;
52620;SDS011;38515;53.160;6.990;2024-01-10T07:47:33;463.70;;;441.23;;
52620;SDS011;38515;53.160;6.990;2024-01-10T07:50:03;421.15;;;402.73;;
52620;SDS011;38515;53.160;6.990;2024-01-10T07:52:37;450.20;;;430.40;;
52620;SDS011;38515;53.160;6.990;2024-01-10T07:55:03;442.80;;;422.92;;
52620;SDS011;38515;53.160;6.990;2024-01-10T07:57:32;379.80;;;363.30;;
52620;SDS011;38515;53.160;6.990;2024-01-10T07:59:59;360.58;;;344.95;;
52620;SDS011;38515;53.160;6.990;2024-01-10T08:02:24;353.75;;;338.33;;
52620;SDS011;38515;53.160;6.990;2024-01-10T08:04:50;309.33;;;296.88;;
52620;SDS011;38515;53.160;6.990;2024-01-10T08:07:16;359.60;;;343.55;;
52620;SDS011;38515;53.160;6.990;2024-01-10T08:09:42;328.67;;;315.15;;
52620;SDS011;38515;53.160;6.990;2024-01-10T08:12:08;358.17;;;343.15;;
52620;SDS011;38515;53.160;6.990;2024-01-10T08:14:34;402.90;;;385.63;;
52620;SDS011;38515;53.160;6.990;2024-01-10T08:16:59;503.55;;;479.88;;
52620;SDS011;38515;53.160;6.990;2024-01-10T08:19:26;527.90;;;503.48;;
52620;SDS011;38515;53.160;6.990;2024-01-10T08:21:52;565.22;;;537.80;;
52620;SDS011;38515;53.160;6.990;2024-01-10T08:24:19;536.33;;;510.10;;
52620;SDS011;38515;53.160;6.990;2024-01-10T08:26:46;526.60;;;501.05;;
52620;SDS011;38515;53.160;6.990;2024-01-10T08:29:17;491.63;;;469.02;;
52620;SDS011;38515;53.160;6.990;2024-01-10T08:31:43;571.03;;;542.53;;
52620;SDS011;38515;53.160;6.990;2024-01-10T08:34:09;464.02;;;442.17;;
52620;SDS011;38515;53.160;6.990;2024-01-10T08:36:35;449.27;;;429.58;;
52620;SDS011;38515;53.160;6.990;2024-01-10T08:39:01;473.98;;;451.27;;
52620;SDS011;38515;53.160;6.990;2024-01-10T08:41:28;470.35;;;448.50;;
52620;SDS011;38515;53.160;6.990;2024-01-10T08:43:54;472.67;;;450.55;;
52620;SDS011;38515;53.160;6.990;2024-01-10T08:46:19;529.67;;;503.42;;
52620;SDS011;38515;53.160;6.990;2024-01-10T08:48:45;554.83;;;526.88;;
52620;SDS011;38515;53.160;6.990;2024-01-10T08:51:12;486.55;;;463.00;;
52620;SDS011;38515;53.160;6.990;2024-01-10T08:53:41;407.85;;;388.15;;
52620;SDS011;38515;53.160;6.990;2024-01-10T08:56:08;605.22;;;575.63;;
52620;SDS011;38515;53.160;6.990;2024-01-10T08:58:33;565.25;;;537.70;;
52620;SDS011;38515;53.160;6.990;2024-01-10T09:00:59;541.85;;;516.17;;
52620;SDS011;38515;53.160;6.990;2024-01-10T09:03:25;570.72;;;543.47;;
52620;SDS011;38515;53.160;6.990;2024-01-10T09:05:50;449.73;;;428.98;;
52620;SDS011;38515;53.160;6.990;2024-01-10T09:08:16;452.80;;;431.98;;
52620;SDS011;38515;53.160;6.990;2024-01-10T09:10:42;474.77;;;453.08;;
52620;SDS011;38515;53.160;6.990;2024-01-10T09:13:08;391.48;;;373.67;;
52620;SDS011;38515;53.160;6.990;2024-01-10T09:15:34;220.40;;;210.73;;
52620;SDS011;38515;53.160;6.990;2024-01-10T09:17:59;250.85;;;240.30;;
52620;SDS011;38515;53.160;6.990;2024-01-10T09:20:25;240.57;;;229.93;;
52620;SDS011;38515;53.160;6.990;2024-01-10T09:22:51;282.20;;;270.60;;
52620;SDS011;38515;53.160;6.990;2024-01-10T09:25:17;268.67;;;256.48;;
52620;SDS011;38515;53.160;6.990;2024-01-10T09:27:42;223.27;;;213.35;;
52620;SDS011;38515;53.160;6.990;2024-01-10T09:30:10;251.73;;;241.43;;
52620;SDS011;38515;53.160;6.990;2024-01-10T09:32:36;254.07;;;242.93;;
52620;SDS011;38515;53.160;6.990;2024-01-10T09:35:03;251.57;;;241.45;;
52620;SDS011;38515;53.160;6.990;2024-01-10T09:37:29;256.77;;;245.80;;
52620;SDS011;38515;53.160;6.990;2024-01-10T09:39:55;261.38;;;248.98;;
52620;SDS011;38515;53.160;6.990;2024-01-10T09:42:21;275.70;;;263.58;;
52620;SDS011;38515;53.160;6.990;2024-01-10T09:44:50;358.70;;;343.65;;
52620;SDS011;38515;53.160;6.990;2024-01-10T09:47:17;413.17;;;393.98;;
52620;SDS011;38515;53.160;6.990;2024-01-10T09:49:45;355.48;;;338.65;;
52620;SDS011;38515;53.160;6.990;2024-01-10T09:52:15;365.85;;;349.00;;
52620;SDS011;38515;53.160;6.990;2024-01-10T09:54:48;285.80;;;272.95;;
52620;SDS011;38515;53.160;6.990;2024-01-10T09:59:50;266.48;;;254.60;;
52620;SDS011;38515;53.160;6.990;2024-01-10T10:02:16;295.80;;;282.27;;
52620;SDS011;38515;53.160;6.990;2024-01-10T10:04:59;307.98;;;294.92;;
52620;SDS011;38515;53.160;6.990;2024-01-10T10:07:29;368.17;;;352.08;;
52620;SDS011;38515;53.160;6.990;2024-01-10T10:09:57;281.55;;;269.00;;
52620;SDS011;38515;53.160;6.990;2024-01-10T10:12:23;284.88;;;271.92;;
52620;SDS011;38515;53.160;6.990;2024-01-10T10:15:11;238.65;;;227.23;;
52620;SDS011;38515;53.160;6.990;2024-01-10T10:17:38;271.42;;;259.88;;
52620;SDS011;38515;53.160;6.990;2024-01-10T10:20:11;305.77;;;291.95;;
52620;SDS011;38515;53.160;6.990;2024-01-10T10:22:38;271.90;;;260.00;;
52620;SDS011;38515;53.160;6.990;2024-01-10T10:25:04;275.42;;;262.88;;
52620;SDS011;38515;53.160;6.990;2024-01-10T10:27:30;211.10;;;202.07;;
52620;SDS011;38515;53.160;6.990;2024-01-10T10:29:57;216.30;;;206.55;;
52620;SDS011;38515;53.160;6.990;2024-01-10T10:32:23;224.60;;;215.23;;
52620;SDS011;38515;53.160;6.990;2024-01-10T10:34:48;234.02;;;224.10;;
52620;SDS011;38515;53.160;6.990;2024-01-10T10:37:14;247.75;;;237.30;;
52620;SDS011;38515;53.160;6.990;2024-01-10T10:39:39;247.90;;;236.57;;
52620;SDS011;38515;53.160;6.990;2024-01-10T10:42:06;266.45;;;254.25;;
52620;SDS011;38515;53.160;6.990;2024-01-10T10:44:32;179.82;;;171.82;;
52620;SDS011;38515;53.160;6.990;2024-01-10T10:47:05;261.80;;;250.82;;
52620;SDS011;38515;53.160;6.990;2024-01-10T10:49:36;258.20;;;246.82;;
52620;SDS011;38515;53.160;6.990;2024-01-10T10:52:12;183.95;;;176.05;;
52620;SDS011;38515;53.160;6.990;2024-01-10T10:54:38;240.32;;;229.60;;
52620;SDS011;38515;53.160;6.990;2024-01-10T10:57:04;328.65;;;314.80;;
52620;SDS011;38515;53.160;6.990;2024-01-10T10:59:30;277.77;;;265.25;;
52620;SDS011;38515;53.160;6.990;2024-01-10T11:02:00;181.43;;;173.50;;
52620;SDS011;38515;53.160;6.990;2024-01-10T11:04:25;232.27;;;221.88;;
52620;SDS011;38515;53.160;6.990;2024-01-10T11:06:52;229.07;;;218.55;;
52620;SDS011;38515;53.160;6.990;2024-01-10T11:09:17;238.45;;;227.98;;
52620;SDS011;38515;53.160;6.990;2024-01-10T11:20:01;188.57;;;180.10;;
52620;SDS011;38515;53.160;6.990;2024-01-10T11:25:53;197.93;;;188.98;;
52620;SDS011;38515;53.160;6.990;2024-01-10T11:28:38;151.83;;;145.57;;
52620;SDS011;38515;53.160;6.990;2024-01-10T11:31:08;166.93;;;160.13;;
52620;SDS011;38515;53.160;6.990;2024-01-10T11:33:35;268.80;;;256.70;;
52620;SDS011;38515;53.160;6.990;2024-01-10T11:38:43;144.13;;;138.00;;
52620;SDS011;38515;53.160;6.990;2024-01-10T11:41:32;189.98;;;181.60;;
52620;SDS011;38515;53.160;6.990;2024-01-10T11:46:38;269.33;;;257.47;;
52620;SDS011;38515;53.160;6.990;2024-01-10T11:49:15;195.25;;;186.77;;
52620;SDS011;38515;53.160;6.990;2024-01-10T11:54:10;181.82;;;174.02;;
52620;SDS011;38515;53.160;6.990;2024-01-10T11:56:42;196.15;;;187.25;;
52620;SDS011;38515;53.160;6.990;2024-01-10T11:59:10;274.67;;;262.55;;
52620;SDS011;38515;53.160;6.990;2024-01-10T12:01:37;182.52;;;174.10;;
52620;SDS011;38515;53.160;6.990;2024-01-10T12:04:04;243.85;;;232.80;;
52620;SDS011;38515;53.160;6.990;2024-01-10T12:06:36;244.48;;;233.77;;
52620;SDS011;38515;53.160;6.990;2024-01-10T12:09:03;308.65;;;295.50;;
52620;SDS011;38515;53.160;6.990;2024-01-10T12:11:36;407.70;;;389.40;;
52620;SDS011;38515;53.160;6.990;2024-01-10T12:14:04;386.92;;;370.15;;
52620;SDS011;38515;53.160;6.990;2024-01-10T12:16:32;366.17;;;349.50;;
52620;SDS011;38515;53.160;6.990;2024-01-10T12:18:58;375.17;;;359.63;;
52620;SDS011;38515;53.160;6.990;2024-01-10T12:21:23;387.23;;;369.20;;
52620;SDS011;38515;53.160;6.990;2024-01-10T12:23:49;259.00;;;248.60;;
52620;SDS011;38515;53.160;6.990;2024-01-10T12:26:16;291.38;;;278.98;;
52620;SDS011;38515;53.160;6.990;2024-01-10T12:28:53;278.67;;;265.67;;
52620;SDS011;38515;53.160;6.990;2024-01-10T12:31:22;313.08;;;300.02;;
52620;SDS011;38515;53.160;6.990;2024-01-10T12:33:49;278.17;;;265.40;;
52620;SDS011;38515;53.160;6.990;2024-01-10T12:36:16;275.85;;;263.45;;
52620;SDS011;38515;53.160;6.990;2024-01-10T12:38:42;232.55;;;222.82;;
52620;SDS011;38515;53.160;6.990;2024-01-10T12:41:12;272.13;;;260.65;;
52620;SDS011;38515;53.160;6.990;2024-01-10T12:43:40;339.05;;;323.58;;
52620;SDS011;38515;53.160;6.990;2024-01-10T12:46:12;352.85;;;337.15;;
52620;SDS011;38515;53.160;6.990;2024-01-10T12:48:41;394.08;;;375.25;;
52620;SDS011;38515;53.160;6.990;2024-01-10T12:51:07;258.65;;;247.40;;
52620;SDS011;38515;53.160;6.990;2024-01-10T12:53:41;258.92;;;247.27;;
52620;SDS011;38515;53.160;6.990;2024-01-10T12:56:09;305.95;;;292.02;;
52620;SDS011;38515;53.160;6.990;2024-01-10T12:58:39;292.05;;;279.38;;
52620;SDS011;38515;53.160;6.990;2024-01-10T13:01:08;325.45;;;311.23;;
52620;SDS011;38515;53.160;6.990;2024-01-10T13:03:36;347.77;;;332.83;;
52620;SDS011;38515;53.160;6.990;2024-01-10T13:06:02;324.73;;;310.42;;
52620;SDS011;38515;53.160;6.990;2024-01-10T13:08:28;277.02;;;264.52;;
52620;SDS011;38515;53.160;6.990;2024-01-10T13:10:54;320.65;;;306.38;;
52620;SDS011;38515;53.160;6.990;2024-01-10T13:13:20;312.63;;;299.30;;
52620;SDS011;38515;53.160;6.990;2024-01-10T13:15:50;258.85;;;248.00;;
52620;SDS011;38515;53.160;6.990;2024-01-10T13:18:16;336.65;;;321.25;;
52620;SDS011;38515;53.160;6.990;2024-01-10T13:20:42;337.30;;;322.83;;
52620;SDS011;38515;53.160;6.990;2024-01-10T13:23:08;410.95;;;392.75;;
52620;SDS011;38515;53.160;6.990;2024-01-10T13:25:34;528.35;;;503.42;;
52620;SDS011;38515;53.160;6.990;2024-01-10T13:28:02;517.50;;;492.60;;
52620;SDS011;38515;53.160;6.990;2024-01-10T13:30:30;407.92;;;389.02;;
52620;SDS011;38515;53.160;6.990;2024-01-10T13:32:56;365.58;;;348.80;;
52620;SDS011;38515;53.160;6.990;2024-01-10T13:35:23;312.65;;;300.13;;
52620;SDS011;38515;53.160;6.990;2024-01-10T13:37:49;434.23;;;414.50;;
52620;SDS011;38515;53.160;6.990;2024-01-10T13:40:15;442.33;;;421.20;;
52620;SDS011;38515;53.160;6.990;2024-01-10T13:42:44;340.85;;;326.38;;
52620;SDS011;38515;53.160;6.990;2024-01-10T13:45:10;338.85;;;324.67;;
52620;SDS011;38515;53.160;6.990;2024-01-10T13:47:37;337.45;;;323.75;;
52620;SDS011;38515;53.160;6.990;2024-01-10T13:50:03;320.23;;;306.83;;
52620;SDS011;38515;53.160;6.990;2024-01-10T13:52:32;331.48;;;318.00;;
52620;SDS011;38515;53.160;6.990;2024-01-10T13:54:58;385.70;;;369.08;;
52620;SDS011;38515;53.160;6.990;2024-01-10T13:57:24;306.58;;;294.42;;
52620;SDS011;38515;53.160;6.990;2024-01-10T13:59:50;347.10;;;332.27;;
52620;SDS011;38515;53.160;6.990;2024-01-10T14:02:16;321.80;;;308.55;;
52620;SDS011;38515;53.160;6.990;2024-01-10T14:04:44;248.75;;;238.00;;
52620;SDS011;38515;53.160;6.990;2024-01-10T14:07:10;329.15;;;315.40;;
52620;SDS011;38515;53.160;6.990;2024-01-10T14:09:36;232.73;;;222.88;;
52620;SDS011;38515;53.160;6.990;2024-01-10T14:12:02;252.68;;;242.35;;
52620;SDS011;38515;53.160;6.990;2024-01-10T14:14:27;235.35;;;226.02;;
52620;SDS011;38515;53.160;6.990;2024-01-10T14:16:53;201.32;;;192.55;;